Time;durP1;ratioP1;P1;durP2;ratioP2;P2;SDS_P1;SDS_P2;PMS_P1;PMS_P2;Temp;Humidity;BMP_temperature;BMP_pressure;BME280_temperature;BME280_humidity;BME280_pressure;Samples;Min_cycle;Max_cycle;Signal;HPM_P1;HPM_P2
2023/01/08 00:00:49;;;;;;;4.47;2.85;;;2.90;99.90;;;;;;5022035;28;20049;-52
2023/01/08 00:03:16;;;;;;;3.55;2.13;;;2.90;99.90;;;;;;5021906;28;20107;-55
2023/01/08 00:05:42;;;;;;;2.63;1.98;;;2.80;99.90;;;;;;5024153;28;20566;-54
2023/01/08 00:08:09;;;;;;;;;;;2.70;99.90;;;;;;5027066;28;20053;-54
2023/01/08 00:10:37;;;;;;;4.05;1.98;;;2.70;99.90;;;;;;5026376;28;19924;-54
2023/01/08 00:13:05;;;;;;;8.30;2.20;;;2.70;99.90;;;;;;5028117;28;20041;-54
2023/01/08 00:15:33;;;;;;;3.67;1.83;;;2.60;99.90;;;;;;5028232;28;20450;-53
2023/01/08 00:18:00;;;;;;;3.47;2.10;;;2.60;99.90;;;;;;5028737;28;20438;-56
2023/01/08 00:20:27;;;;;;;4.68;1.88;;;2.50;99.90;;;;;;5043463;28;20502;-53
2023/01/08 00:22:54;;;;;;;2.92;1.90;;;2.50;99.90;;;;;;5026711;28;20133;-54
2023/01/08 00:25:21;;;;;;;3.60;1.95;;;2.50;99.90;;;;;;5027115;28;20670;-53
2023/01/08 00:27:48;;;;;;;3.53;2.25;;;2.50;99.90;;;;;;5016325;28;20071;-53
2023/01/08 00:30:15;;;;;;;;;;;2.50;99.90;;;;;;5000561;28;20188;-53
2023/01/08 00:32:41;;;;;;;3.72;2.10;;;2.50;99.90;;;;;;5024968;28;19970;-54
2023/01/08 00:35:08;;;;;;;;;;;2.50;99.90;;;;;;5020747;28;20067;-54
2023/01/08 00:37:35;;;;;;;4.30;1.50;;;2.50;99.90;;;;;;5022625;28;19998;-55
2023/01/08 00:40:02;;;;;;;4.15;1.92;;;2.50;99.90;;;;;;5023402;28;20045;-54
2023/01/08 00:42:28;;;;;;;2.67;2.17;;;2.50;99.90;;;;;;5023018;28;20136;-54
2023/01/08 00:44:55;;;;;;;2.47;1.80;;;2.50;99.90;;;;;;5023972;28;20044;-53
2023/01/08 00:47:22;;;;;;;;;;;2.40;99.90;;;;;;5023312;28;20040;-53
2023/01/08 00:49:49;;;;;;;1.98;1.75;;;2.40;99.90;;;;;;5023913;28;19929;-53
2023/01/08 00:52:15;;;;;;;;;;;2.30;99.90;;;;;;5023693;28;20280;-53
2023/01/08 00:54:42;;;;;;;2.15;1.50;;;2.20;99.90;;;;;;5022972;28;19924;-53
2023/01/08 00:57:08;;;;;;;2.42;1.70;;;2.20;99.90;;;;;;5023810;28;20534;-54
2023/01/08 00:59:35;;;;;;;;;;;2.10;99.90;;;;;;5024379;28;20624;-55
2023/01/08 01:02:02;;;;;;;6.95;1.90;;;2.10;99.90;;;;;;5022641;28;20453;-55
2023/01/08 01:04:29;;;;;;;4.05;2.33;;;2.00;99.90;;;;;;5022361;28;20384;-54
2023/01/08 01:06:55;;;;;;;;;;;2.00;99.90;;;;;;5023826;28;20135;-54
2023/01/08 01:09:22;;;;;;;2.45;1.98;;;2.00;99.90;;;;;;5023383;28;19924;-54
2023/01/08 01:11:49;;;;;;;2.88;2.25;;;2.00;99.90;;;;;;5022155;28;20052;-54
2023/01/08 01:14:15;;;;;;;;;;;2.00;99.90;;;;;;5024179;28;20574;-54
2023/01/08 01:16:42;;;;;;;1.85;1.63;;;2.00;99.90;;;;;;5022344;28;20452;-53
2023/01/08 01:19:14;;;;;;;2.63;1.92;;;2.00;99.90;;;;;;5022994;28;20052;-54
2023/01/08 01:21:41;;;;;;;3.17;2.30;;;2.00;99.90;;;;;;5022544;28;20072;-54
2023/01/08 01:24:11;;;;;;;3.30;2.50;;;2.00;99.90;;;;;;5022322;28;20040;-54
2023/01/08 01:26:38;;;;;;;2.88;2.20;;;2.00;99.90;;;;;;5023347;28;20114;-54
2023/01/08 01:29:05;;;;;;;;;;;1.90;99.90;;;;;;5023902;28;20048;-54
2023/01/08 01:31:32;;;;;;;4.03;2.35;;;1.90;99.90;;;;;;5023296;28;19924;-54
2023/01/08 01:33:59;;;;;;;2.92;2.00;;;1.90;99.90;;;;;;5023054;28;20490;-56
2023/01/08 01:36:26;;;;;;;3.33;2.00;;;1.80;99.90;;;;;;5020397;28;20056;-52
2023/01/08 01:38:55;;;;;;;2.10;1.70;;;1.80;99.90;;;;;;5037861;28;20053;-54
2023/01/08 01:41:24;;;;;;;3.40;2.25;;;1.70;99.90;;;;;;5023224;28;20037;-54
2023/01/08 01:43:51;;;;;;;3.15;2.42;;;1.70;99.90;;;;;;5023155;28;20041;-55
2023/01/08 01:46:24;;;;;;;4.18;2.05;;;1.70;99.90;;;;;;5023303;28;20134;-55
2023/01/08 01:48:55;;;;;;;4.43;2.72;;;1.60;99.90;;;;;;5022209;28;20465;-55
2023/01/08 01:51:28;;;;;;;3.55;2.22;;;1.60;99.90;;;;;;5023126;28;20051;-53
2023/01/08 01:53:55;;;;;;;2.80;2.20;;;1.60;99.90;;;;;;5037511;28;20084;-55
2023/01/08 01:56:22;;;;;;;3.50;2.67;;;1.60;99.90;;;;;;5022480;28;20060;-54
2023/01/08 01:58:49;;;;;;;3.45;2.65;;;1.60;99.90;;;;;;5038303;28;20045;-55
2023/01/08 02:01:16;;;;;;;;;;;1.60;99.90;;;;;;5023602;28;20560;-56
2023/01/08 02:03:43;;;;;;;4.95;2.70;;;1.60;99.90;;;;;;5022371;28;19927;-55
2023/01/08 02:06:19;;;;;;;4.22;2.75;;;1.60;99.90;;;;;;5021743;28;20041;-55
2023/01/08 02:08:58;;;;;;;5.50;2.65;;;1.60;99.90;;;;;;5022081;28;20060;-54
2023/01/08 02:11:40;;;;;;;4.07;2.72;;;1.60;99.90;;;;;;5021076;28;20438;-53
2023/01/08 02:14:31;;;;;;;3.65;2.88;;;1.70;99.90;;;;;;5035646;28;20045;-55
2023/01/08 02:17:08;;;;;;;4.07;2.42;;;1.60;99.90;;;;;;5021157;28;20484;-55
2023/01/08 02:19:50;;;;;;;5.05;3.05;;;1.70;99.90;;;;;;5012525;28;20045;-55
2023/01/08 02:22:46;;;;;;;4.63;2.50;;;1.70;99.90;;;;;;5022093;28;20069;-54
2023/01/08 02:25:32;;;;;;;2.90;2.35;;;1.70;99.90;;;;;;5021354;28;20128;-53
2023/01/08 02:28:01;;;;;;;3.58;2.65;;;1.70;99.90;;;;;;5021601;28;20099;-53
2023/01/08 02:30:28;;;;;;;4.07;2.80;;;1.70;99.90;;;;;;5021240;28;20429;-55
2023/01/08 02:32:55;;;;;;;3.85;2.60;;;1.60;99.90;;;;;;5021942;28;20056;-53
2023/01/08 02:35:22;;;;;;;4.18;2.13;;;1.70;99.90;;;;;;5020925;28;20559;-54
2023/01/08 02:37:49;;;;;;;4.03;2.53;;;1.70;99.90;;;;;;5018607;28;20154;-54
2023/01/08 02:40:28;;;;;;;3.25;2.50;;;1.70;99.90;;;;;;5021507;28;20081;-55
2023/01/08 02:43:16;;;;;;;4.88;3.15;;;1.70;99.90;;;;;;5021874;28;20041;-53
2023/01/08 02:45:53;;;;;;;4.05;3.25;;;1.60;99.90;;;;;;5022589;28;20037;-53
2023/01/08 02:48:28;;;;;;;3.78;3.00;;;1.60;99.90;;;;;;5021975;28;20500;-54
2023/01/08 02:51:00;;;;;;;5.25;2.40;;;1.70;99.90;;;;;;5021943;28;20423;-54
2023/01/08 02:53:37;;;;;;;4.93;2.63;;;1.70;99.90;;;;;;5023094;28;20044;-55
2023/01/08 02:56:09;;;;;;;4.60;2.35;;;1.70;99.90;;;;;;5018844;28;20041;-55
2023/01/08 02:58:37;;;;;;;4.70;2.33;;;1.70;99.90;;;;;;5022116;28;20056;-55
2023/01/08 03:01:08;;;;;;;4.90;2.50;;;1.80;99.90;;;;;;5020546;28;20045;-52
2023/01/08 03:03:37;;;;;;;8.45;2.30;;;1.80;99.90;;;;;;5020748;28;20534;-54
2023/01/08 03:06:09;;;;;;;1.77;1.60;;;1.90;99.90;;;;;;5036476;28;20037;-55
2023/01/08 03:08:39;;;;;;;3.50;2.33;;;1.90;99.90;;;;;;5020887;28;20584;-54
2023/01/08 03:11:09;;;;;;;2.00;1.77;;;1.90;99.90;;;;;;5021922;28;20040;-54
2023/01/08 03:13:55;;;;;;;2.45;1.83;;;1.90;99.90;;;;;;5020995;28;20148;-56
2023/01/08 03:16:34;;;;;;;4.50;2.25;;;1.90;99.90;;;;;;5021801;28;20068;-53
2023/01/08 03:19:08;;;;;;;3.95;2.33;;;1.90;99.90;;;;;;5021532;28;20142;-57
2023/01/08 03:21:37;;;;;;;6.35;3.03;;;2.00;99.90;;;;;;5020321;28;20048;-55
2023/01/08 03:24:06;;;;;;;8.68;4.00;;;2.00;99.90;;;;;;5020910;28;20299;-53
2023/01/08 03:26:36;;;;;;;3.97;2.53;;;2.00;99.90;;;;;;5011548;28;20045;-54
2023/01/08 03:29:05;;;;;;;3.90;2.75;;;2.10;99.90;;;;;;5019518;28;20132;-54
2023/01/08 03:31:34;;;;;;;3.78;2.65;;;2.20;99.90;;;;;;5021183;28;20353;-54
2023/01/08 03:34:03;;;;;;;6.60;2.55;;;2.30;99.90;;;;;;5020744;28;20381;-56
2023/01/08 03:36:32;;;;;;;4.65;2.95;;;2.40;99.90;;;;;;5020578;28;20303;-53
2023/01/08 03:39:27;;;;;;;5.55;3.45;;;2.40;99.90;;;;;;5016353;28;20043;-55
2023/01/08 03:41:58;;;;;;;21.27;6.65;;;2.50;99.90;;;;;;5018773;28;20119;-55
2023/01/08 03:44:25;;;;;;;5.65;3.25;;;2.50;99.90;;;;;;5020534;28;20452;-54
2023/01/08 03:46:54;;;;;;;5.68;3.38;;;2.60;99.90;;;;;;5021275;28;20041;-53
2023/01/08 03:49:25;;;;;;;4.07;2.83;;;2.70;99.90;;;;;;5021029;28;20470;-52
2023/01/08 03:51:52;;;;;;;4.82;3.40;;;2.70;99.90;;;;;;5020495;28;20125;-55
2023/01/08 03:54:19;;;;;;;;;;;2.70;99.90;;;;;;5021604;28;20628;-55
2023/01/08 03:56:46;;;;;;;;;;;2.70;99.90;;;;;;5012416;28;19929;-56
2023/01/08 03:59:14;;;;;;;5.53;3.15;;;2.70;99.90;;;;;;5021611;28;19931;-53
2023/01/08 04:01:41;;;;;;;3.55;2.95;;;2.70;99.90;;;;;;5021006;28;20463;-54
2023/01/08 04:04:10;;;;;;;3.78;2.40;;;2.70;99.90;;;;;;5019113;28;20647;-54
2023/01/08 04:06:37;;;;;;;4.82;3.00;;;2.60;99.90;;;;;;5020099;28;20052;-55
2023/01/08 04:09:03;;;;;;;4.78;2.40;;;2.50;99.90;;;;;;5019089;28;20505;-54
2023/01/08 04:11:30;;;;;;;;;;;2.50;99.90;;;;;;5036684;28;20159;-55
2023/01/08 04:13:58;;;;;;;3.90;2.30;;;2.50;99.90;;;;;;5021346;28;19960;-55
2023/01/08 04:16:24;;;;;;;3.25;2.25;;;2.40;99.90;;;;;;5019454;28;20610;-54
2023/01/08 04:18:51;;;;;;;2.83;2.47;;;2.40;99.90;;;;;;5020672;28;20063;-54
2023/01/08 04:21:18;;;;;;;;;;;2.30;99.90;;;;;;5020250;28;20135;-54
2023/01/08 04:23:44;;;;;;;6.30;3.20;;;2.30;99.90;;;;;;5019439;28;19954;-54
2023/01/08 04:26:11;;;;;;;3.97;2.60;;;2.30;99.90;;;;;;5034698;28;20037;-54
2023/01/08 04:28:38;;;;;;;;;;;2.30;99.90;;;;;;5019192;28;20504;-55
2023/01/08 04:31:08;;;;;;;4.55;2.85;;;2.30;99.90;;;;;;5018533;28;19928;-54
2023/01/08 04:33:36;;;;;;;3.55;2.53;;;2.30;99.90;;;;;;5018782;28;20060;-54
2023/01/08 04:36:04;;;;;;;5.43;3.13;;;2.30;99.90;;;;;;5020084;28;20049;-54
2023/01/08 04:38:30;;;;;;;3.13;2.47;;;2.30;99.90;;;;;;5018428;28;20068;-55
2023/01/08 04:41:01;;;;;;;3.28;2.63;;;2.20;99.90;;;;;;5017846;28;20057;-55
2023/01/08 04:43:30;;;;;;;5.90;2.72;;;2.20;99.90;;;;;;5019954;28;20124;-55
2023/01/08 04:45:58;;;;;;;6.13;2.50;;;2.20;99.90;;;;;;5019418;28;20578;-54
2023/01/08 04:48:25;;;;;;;4.35;3.10;;;2.20;99.90;;;;;;5019221;28;20041;-55
2023/01/08 04:50:52;;;;;;;4.72;3.05;;;2.20;99.90;;;;;;5036067;28;20049;-52
2023/01/08 04:53:19;;;;;;;3.38;2.60;;;2.20;99.90;;;;;;5022971;28;20045;-53
2023/01/08 04:55:46;;;;;;;3.80;2.70;;;2.10;99.90;;;;;;5024188;28;20045;-54
2023/01/08 04:58:13;;;;;;;4.05;2.53;;;2.10;99.90;;;;;;5023878;28;20054;-54
2023/01/08 05:00:39;;;;;;;4.95;3.50;;;2.10;99.90;;;;;;5024192;28;20053;-53
2023/01/08 05:03:06;;;;;;;;;;;2.10;99.90;;;;;;5023055;28;20076;-54
2023/01/08 05:05:33;;;;;;;3.53;2.55;;;2.10;99.90;;;;;;5023236;28;20022;-53
2023/01/08 05:08:00;;;;;;;8.13;2.90;;;2.10;99.90;;;;;;5023276;28;20142;-54
2023/01/08 05:10:27;;;;;;;;;;;2.10;99.90;;;;;;5038137;28;20570;-57
2023/01/08 05:12:58;;;;;;;6.07;3.33;;;2.10;99.90;;;;;;5023741;28;19924;-52
2023/01/08 05:15:26;;;;;;;4.80;3.20;;;2.20;99.90;;;;;;5021540;28;20052;-54
2023/01/08 05:18:00;;;;;;;8.50;2.97;;;2.20;99.90;;;;;;5022477;28;20373;-53
2023/01/08 05:20:27;;;;;;;6.18;2.65;;;2.30;99.90;;;;;;5012956;28;20648;-55
2023/01/08 05:22:55;;;;;;;5.28;3.22;;;2.30;99.90;;;;;;5021863;28;20674;-53
2023/01/08 05:25:21;;;;;;;6.30;2.65;;;2.30;99.90;;;;;;5022268;28;20033;-55
2023/01/08 05:27:48;;;;;;;4.05;2.28;;;2.30;99.90;;;;;;5022731;28;20116;-55
2023/01/08 05:30:15;;;;;;;3.83;2.38;;;2.40;99.90;;;;;;5021815;28;20049;-54
2023/01/08 05:32:42;;;;;;;3.05;2.38;;;2.40;99.90;;;;;;5023276;28;20148;-52
2023/01/08 05:35:09;;;;;;;4.43;2.05;;;2.40;99.90;;;;;;5022475;28;20520;-53
2023/01/08 05:37:36;;;;;;;;;;;2.40;99.90;;;;;;5024002;28;20055;-54
2023/01/08 05:40:04;;;;;;;2.80;1.88;;;2.50;99.90;;;;;;5019995;28;20019;-55
2023/01/08 05:42:34;;;;;;;5.82;2.90;;;2.40;99.90;;;;;;5019755;28;20045;-55
2023/01/08 05:45:05;;;;;;;2.58;2.08;;;2.40;99.90;;;;;;5022320;28;20701;-55
2023/01/08 05:47:32;;;;;;;4.03;2.63;;;2.40;99.90;;;;;;5019503;28;20802;-54
2023/01/08 05:49:59;;;;;;;4.03;2.33;;;2.40;99.90;;;;;;5022714;28;20167;-55
2023/01/08 05:52:26;;;;;;;5.93;2.40;;;2.40;99.90;;;;;;5022717;28;20522;-55
2023/01/08 05:54:53;;;;;;;2.47;2.22;;;2.40;99.90;;;;;;5021491;28;20055;-54
2023/01/08 05:57:20;;;;;;;3.17;2.00;;;2.50;99.90;;;;;;5015030;28;20064;-54
2023/01/08 05:59:47;;;;;;;3.85;2.38;;;2.50;99.90;;;;;;5022917;28;20052;-53
2023/01/08 06:02:14;;;;;;;3.85;2.35;;;2.50;99.90;;;;;;5017721;28;20045;-53
2023/01/08 06:04:41;;;;;;;;;;;2.60;99.90;;;;;;5023615;28;20040;-53
2023/01/08 06:07:07;;;;;;;3.38;2.55;;;2.60;99.90;;;;;;5023719;28;19936;-53
2023/01/08 06:09:34;;;;;;;6.20;2.75;;;2.60;99.90;;;;;;5037715;28;20032;-53
2023/01/08 06:12:01;;;;;;;;;;;2.70;99.90;;;;;;5023983;28;20307;-53
2023/01/08 06:14:28;;;;;;;1.70;1.48;;;2.80;99.90;;;;;;5023779;28;19925;-54
2023/01/08 06:16:54;;;;;;;;;;;2.80;99.90;;;;;;5024834;28;20443;-54
2023/01/08 06:19:21;;;;;;;2.08;1.73;;;2.90;99.90;;;;;;5024049;28;20478;-53
2023/01/08 06:21:48;;;;;;;3.75;2.10;;;2.90;99.90;;;;;;5023544;28;20863;-55
2023/01/08 06:24:15;;;;;;;3.03;1.73;;;3.00;99.90;;;;;;5022728;28;20485;-54
2023/01/08 06:26:41;;;;;;;;;;;3.00;99.90;;;;;;5024838;28;20052;-54
2023/01/08 06:29:08;;;;;;;4.57;2.08;;;3.10;99.90;;;;;;5024308;28;20307;-54
2023/01/08 06:31:35;;;;;;;;;;;3.20;99.90;;;;;;5024384;28;20529;-55
2023/01/08 06:34:02;;;;;;;3.78;2.05;;;3.20;99.90;;;;;;5023657;28;20023;-54
2023/01/08 06:36:29;;;;;;;3.15;1.95;;;3.30;99.90;;;;;;5024169;28;20070;-56
2023/01/08 06:38:55;;;;;;;;;;;3.30;99.90;;;;;;5025273;28;20144;-53
2023/01/08 06:41:22;;;;;;;5.15;2.28;;;3.20;99.90;;;;;;5021019;28;19924;-54
2023/01/08 06:43:49;;;;;;;;;;;3.20;99.90;;;;;;5023325;28;20238;-51
2023/01/08 06:46:15;;;;;;;3.42;2.33;;;3.20;99.90;;;;;;5014849;28;20019;-50
2023/01/08 06:48:42;;;;;;;;;;;3.20;99.90;;;;;;5024004;28;20482;-53
2023/01/08 06:51:09;;;;;;;3.53;2.33;;;3.10;99.90;;;;;;5023218;28;19931;-55
2023/01/08 06:53:36;;;;;;;11.10;3.47;;;3.10;99.90;;;;;;5023247;28;20357;-54
2023/01/08 06:56:03;;;;;;;4.30;2.50;;;3.00;99.90;;;;;;5023412;28;20053;-54
2023/01/08 06:58:30;;;;;;;3.88;2.53;;;3.00;99.90;;;;;;5023805;28;20355;-54
2023/01/08 07:00:57;;;;;;;;;;;2.90;99.90;;;;;;5038059;28;20049;-54
2023/01/08 07:03:24;;;;;;;4.15;2.28;;;2.90;99.90;;;;;;5022768;28;19925;-56
2023/01/08 07:05:51;;;;;;;3.70;2.25;;;2.90;99.90;;;;;;5022776;28;20065;-54
2023/01/08 07:08:18;;;;;;;4.80;2.50;;;3.00;99.90;;;;;;5021824;28;20501;-54
2023/01/08 07:10:45;;;;;;;4.90;2.65;;;3.00;99.90;;;;;;5022847;28;20163;-55
2023/01/08 07:13:12;;;;;;;3.03;2.22;;;3.00;99.90;;;;;;5021714;28;20053;-54
2023/01/08 07:15:40;;;;;;;8.52;2.83;;;3.00;99.90;;;;;;5022576;28;20049;-53
2023/01/08 07:18:09;;;;;;;4.40;2.72;;;3.10;99.90;;;;;;5023119;28;20211;-55
2023/01/08 07:20:36;;;;;;;4.60;3.38;;;3.20;99.90;;;;;;5020429;28;20517;-54
2023/01/08 07:23:04;;;;;;;6.90;2.40;;;3.20;99.90;;;;;;5022519;28;20199;-53
2023/01/08 07:25:31;;;;;;;6.55;2.95;;;3.30;99.90;;;;;;5022017;28;20242;-53
2023/01/08 07:27:59;;;;;;;3.88;2.42;;;3.30;99.90;;;;;;5022720;28;20049;-55
2023/01/08 07:30:26;;;;;;;7.05;2.63;;;3.40;99.90;;;;;;5021913;28;20722;-53
2023/01/08 07:33:00;;;;;;;7.25;1.73;;;3.40;99.90;;;;;;5022389;28;20425;-53
2023/01/08 07:35:28;;;;;;;3.53;2.00;;;3.40;99.90;;;;;;5022299;28;20257;-54
2023/01/08 07:37:55;;;;;;;3.33;2.42;;;3.40;99.90;;;;;;5021324;28;20210;-50
2023/01/08 07:40:21;;;;;;;3.75;2.20;;;3.50;99.90;;;;;;5021191;28;20061;-54
2023/01/08 07:42:59;;;;;;;4.88;2.00;;;3.50;99.90;;;;;;5018109;28;20160;-53
2023/01/08 07:45:27;;;;;;;3.60;2.17;;;3.60;99.90;;;;;;5019780;28;20037;-53
2023/01/08 07:47:57;;;;;;;2.80;2.03;;;3.70;99.90;;;;;;5036983;28;20116;-53
2023/01/08 07:50:24;;;;;;;3.15;1.73;;;3.70;99.90;;;;;;5020936;28;20048;-53
2023/01/08 07:52:51;;;;;;;5.05;2.25;;;3.70;99.90;;;;;;5021040;28;20135;-51
2023/01/08 07:55:18;;;;;;;;;;;3.70;99.90;;;;;;5022075;28;20566;-54
2023/01/08 07:57:45;;;;;;;3.10;2.08;;;3.80;99.90;;;;;;5021980;28;20373;-55
2023/01/08 08:00:13;;;;;;;;;;;3.80;99.90;;;;;;5022215;28;20044;-55
2023/01/08 08:02:40;;;;;;;3.53;1.92;;;3.80;99.90;;;;;;5020596;28;19978;-55
2023/01/08 08:05:07;;;;;;;3.38;2.03;;;3.90;99.90;;;;;;5021840;28;20044;-54
2023/01/08 08:07:34;;;;;;;4.40;2.88;;;3.90;99.90;;;;;;5021257;28;20150;-54
2023/01/08 08:10:02;;;;;;;5.60;3.15;;;3.90;99.90;;;;;;5022088;28;20048;-54
2023/01/08 08:12:29;;;;;;;2.85;2.30;;;4.00;99.90;;;;;;5021864;28;20045;-54
2023/01/08 08:14:56;;;;;;;5.30;2.40;;;4.00;99.90;;;;;;5020716;28;20409;-55
2023/01/08 08:17:23;;;;;;;;;;;4.10;99.90;;;;;;5022652;28;20070;-52
2023/01/08 08:19:50;;;;;;;8.00;3.30;;;4.10;99.90;;;;;;5020703;28;20297;-53
2023/01/08 08:22:16;;;;;;;;;;;4.20;99.90;;;;;;5021686;28;20083;-53
2023/01/08 08:24:43;;;;;;;5.53;3.03;;;4.20;99.90;;;;;;5021557;28;20021;-53
2023/01/08 08:27:10;;;;;;;;;;;4.30;99.90;;;;;;5025937;28;20056;-55
2023/01/08 08:29:37;;;;;;;4.50;3.25;;;4.30;99.90;;;;;;5023925;28;20239;-55
2023/01/08 08:32:04;;;;;;;8.00;3.78;;;4.40;99.90;;;;;;5024848;28;20491;-55
2023/01/08 08:34:32;;;;;;;7.15;3.92;;;4.50;99.90;;;;;;5024923;28;20454;-55
2023/01/08 08:36:59;;;;;;;6.22;2.97;;;4.50;99.90;;;;;;5022814;28;20056;-53
2023/01/08 08:39:25;;;;;;;3.90;2.55;;;4.50;99.90;;;;;;5025090;28;20080;-54
2023/01/08 08:41:52;;;;;;;;;;;4.60;99.90;;;;;;5024624;28;20568;-54
2023/01/08 08:44:19;;;;;;;8.98;2.63;;;4.70;99.90;;;;;;5021751;28;19924;-54
2023/01/08 08:46:45;;;;;;;4.38;2.72;;;4.70;99.90;;;;;;5025716;28;20541;-52
2023/01/08 08:49:12;;;;;;;;;;;4.80;99.90;;;;;;5025808;28;20480;-49
2023/01/08 08:51:39;;;;;;;2.97;2.13;;;5.00;99.90;;;;;;5024187;28;20410;-55
2023/01/08 08:54:05;;;;;;;3.67;2.10;;;5.10;99.90;;;;;;5024468;28;20331;-54
2023/01/08 08:56:32;;;;;;;4.05;2.67;;;5.10;99.90;;;;;;5023726;28;20053;-54
2023/01/08 08:58:59;;;;;;;10.13;2.20;;;5.20;99.90;;;;;;5025521;28;20059;-53
2023/01/08 09:01:25;;;;;;;;;;;5.30;99.90;;;;;;5041030;28;20053;-54
2023/01/08 09:03:52;;;;;;;6.13;3.45;;;5.40;99.90;;;;;;5023584;28;20188;-57
2023/01/08 09:06:19;;;;;;;5.20;3.65;;;5.50;99.90;;;;;;5025359;28;20045;-53
2023/01/08 09:08:46;;;;;;;;;;;5.50;99.90;;;;;;5024673;28;20056;-54
2023/01/08 09:11:12;;;;;;;7.57;3.75;;;5.60;99.90;;;;;;5024597;28;20190;-52
2023/01/08 09:13:40;;;;;;;9.93;4.38;;;5.50;99.90;;;;;;5024220;28;20111;-55
2023/01/08 09:16:07;;;;;;;9.77;4.68;;;5.50;99.90;;;;;;5023515;28;20719;-55
2023/01/08 09:18:33;;;;;;;7.72;3.78;;;5.50;99.90;;;;;;5024599;28;20407;-56
2023/01/08 09:21:05;;;;;;;;;;;5.40;99.90;;;;;;5019548;28;20056;-53
2023/01/08 09:23:32;;;;;;;8.60;4.22;;;5.40;99.90;;;;;;5039010;28;19929;-53
2023/01/08 09:26:01;;;;;;;10.65;4.53;;;5.40;99.90;;;;;;5024986;28;20719;-51
2023/01/08 09:28:28;;;;;;;12.43;4.68;;;5.40;99.90;;;;;;5023628;28;20689;-55
2023/01/08 09:30:54;;;;;;;13.52;5.20;;;5.30;99.90;;;;;;5024518;28;20304;-53
2023/01/08 09:33:21;;;;;;;;;;;5.40;99.90;;;;;;5025253;28;20041;-53
2023/01/08 09:35:48;;;;;;;10.23;4.78;;;5.40;99.90;;;;;;5024172;28;19928;-53
2023/01/08 09:38:14;;;;;;;8.20;4.35;;;5.40;99.90;;;;;;5022197;28;20728;-52
2023/01/08 09:41:04;;;;;;;10.48;4.97;;;5.40;99.90;;;;;;5023989;28;20239;-52
2023/01/08 09:43:33;;;;;;;7.72;4.65;;;5.40;99.90;;;;;;5020444;28;20336;-53
2023/01/08 09:46:04;;;;;;;7.47;4.20;;;5.40;99.90;;;;;;5019855;28;20419;-54
2023/01/08 09:48:35;;;;;;;7.80;4.47;;;5.50;99.90;;;;;;5024551;28;20064;-53
2023/01/08 09:51:02;;;;;;;8.57;4.32;;;5.50;99.90;;;;;;5024104;28;20049;-55
2023/01/08 09:53:29;;;;;;;7.25;3.90;;;5.50;99.90;;;;;;5022702;28;20246;-54
2023/01/08 09:56:08;;;;;;;7.43;4.28;;;5.50;99.90;;;;;;5025207;28;20068;-54
2023/01/08 09:58:54;;;;;;;7.93;4.05;;;5.50;99.90;;;;;;5021811;28;20053;-54
2023/01/08 10:01:23;;;;;;;10.73;4.10;;;5.60;99.90;;;;;;5023910;28;20055;-53
2023/01/08 10:04:13;;;;;;;7.75;4.22;;;5.60;99.90;;;;;;5021975;28;20434;-53
2023/01/08 10:06:45;;;;;;;8.02;4.47;;;5.60;99.90;;;;;;5023372;28;20037;-53
2023/01/08 10:09:13;;;;;;;7.32;4.40;;;5.60;99.90;;;;;;5023449;28;20099;-52
2023/01/08 10:11:44;;;;;;;6.03;3.70;;;5.60;99.90;;;;;;5022997;28;20127;-52
2023/01/08 10:14:28;;;;;;;6.40;3.60;;;5.60;99.90;;;;;;5023779;28;20130;-54
2023/01/08 10:17:02;;;;;;;4.88;3.28;;;5.60;99.90;;;;;;5023746;28;20143;-52
2023/01/08 10:19:28;;;;;;;6.68;3.83;;;5.60;99.90;;;;;;5024371;28;20531;-52
2023/01/08 10:21:56;;;;;;;5.75;3.33;;;5.60;99.90;;;;;;5023291;28;20051;-52
2023/01/08 10:24:35;;;;;;;4.60;3.20;;;5.70;99.90;;;;;;5022912;28;20351;-55
2023/01/08 10:27:07;;;;;;;5.03;3.05;;;5.60;99.90;;;;;;5039722;28;20247;-56
2023/01/08 10:29:33;;;;;;;7.38;3.80;;;5.70;99.90;;;;;;5023251;28;20048;-55
2023/01/08 10:32:13;;;;;;;5.15;3.17;;;5.70;99.90;;;;;;5024400;28;20344;-54
2023/01/08 10:34:49;;;;;;;6.72;3.35;;;5.70;99.90;;;;;;5013152;28;20506;-54
2023/01/08 10:37:35;;;;;;;9.40;4.85;;;5.80;99.90;;;;;;5024013;28;20126;-55
2023/01/08 10:40:42;;;;;;;7.03;4.40;;;5.90;99.90;;;;;;5021311;28;20132;-50
2023/01/08 10:43:17;;;;;;;7.93;3.90;;;5.90;99.90;;;;;;5021307;28;20656;-52
2023/01/08 10:45:58;;;;;;;7.68;3.90;;;6.00;99.90;;;;;;5017539;28;20076;-50
2023/01/08 10:48:36;;;;;;;8.65;3.47;;;6.00;99.90;;;;;;5022025;28;20256;-54
2023/01/08 10:51:19;;;;;;;6.88;3.00;;;6.10;99.90;;;;;;5021994;28;20527;-53
2023/01/08 10:53:46;;;;;;;10.55;4.60;;;6.10;99.90;;;;;;5021776;28;20192;-54
2023/01/08 10:56:21;;;;;;;;;;;6.20;99.90;;;;;;5020995;28;20045;-54
2023/01/08 10:58:48;;;;;;;13.40;7.25;;;6.30;99.90;;;;;;5021525;28;19956;-55
2023/01/08 11:01:21;;;;;;;11.65;6.32;;;6.40;99.90;;;;;;5022808;28;20126;-54
2023/01/08 11:03:56;;;;;;;13.95;6.50;;;6.30;99.90;;;;;;5022210;28;20441;-55
2023/01/08 11:06:26;;;;;;;13.65;6.93;;;6.30;99.90;;;;;;5022267;28;20072;-55
2023/01/08 11:09:02;;;;;;;10.88;5.75;;;6.30;99.90;;;;;;5022398;28;20273;-55
2023/01/08 11:11:36;;;;;;;10.55;5.72;;;6.30;99.90;;;;;;5020207;28;20147;-51
2023/01/08 11:14:26;;;;;;;8.55;5.15;;;6.30;99.90;;;;;;5019970;28;20511;-53
2023/01/08 11:16:54;;;;;;;31.17;18.15;;;6.30;99.90;;;;;;5021422;28;20083;-55
2023/01/08 11:19:32;;;;;;;24.52;14.65;;;6.30;99.90;;;;;;5022358;28;20044;-53
2023/01/08 11:22:20;;;;;;;13.55;8.10;;;6.30;99.90;;;;;;5012311;28;20051;-54
2023/01/08 11:24:49;;;;;;;10.32;6.72;;;6.40;99.90;;;;;;5021933;28;20383;-54
2023/01/08 11:27:25;;;;;;;8.35;5.60;;;6.40;99.90;;;;;;5022243;28;20486;-54
2023/01/08 11:30:01;;;;;;;8.32;5.45;;;6.40;99.90;;;;;;5021074;28;20269;-55
2023/01/08 11:32:43;;;;;;;6.13;4.38;;;6.40;99.90;;;;;;5021979;28;20044;-54
2023/01/08 11:35:12;;;;;;;8.63;5.03;;;6.40;99.90;;;;;;5021070;28;20341;-55
2023/01/08 11:37:52;;;;;;;7.13;4.05;;;6.40;99.90;;;;;;5022532;28;20286;-54
2023/01/08 11:40:43;;;;;;;6.32;4.68;;;6.40;99.90;;;;;;5021380;28;20133;-55
2023/01/08 11:43:14;;;;;;;7.93;5.15;;;6.40;99.90;;;;;;5020255;28;20146;-53
2023/01/08 11:46:25;;;;;;;10.02;5.00;;;6.40;99.90;;;;;;5020270;28;20130;-52
2023/01/08 11:49:31;;;;;;;7.90;5.57;;;6.40;99.90;;;;;;4990561;28;20123;-54
2023/01/08 11:52:13;;;;;;;9.93;5.22;;;6.40;99.90;;;;;;5020829;28;20072;-54
2023/01/08 11:55:04;;;;;;;6.72;4.40;;;6.40;99.90;;;;;;5021240;28;20057;-53
2023/01/08 11:57:57;;;;;;;6.97;4.53;;;6.40;99.90;;;;;;5021844;28;20521;-53
2023/01/08 12:00:45;;;;;;;7.55;4.75;;;6.40;99.90;;;;;;5023497;28;20067;-53
2023/01/08 12:03:29;;;;;;;7.93;4.20;;;6.40;99.90;;;;;;5027884;28;20126;-53
2023/01/08 12:06:34;;;;;;;8.57;4.03;;;6.40;99.90;;;;;;5026801;28;20454;-54
2023/01/08 12:09:20;;;;;;;6.78;4.47;;;6.50;99.90;;;;;;5026626;28;20056;-53
2023/01/08 12:12:15;;;;;;;7.60;5.22;;;6.50;99.90;;;;;;5023657;28;20131;-54
2023/01/08 12:14:53;;;;;;;7.60;4.63;;;6.50;99.90;;;;;;5026197;28;20147;-52
2023/01/08 12:17:37;;;;;;;8.93;5.03;;;6.50;99.90;;;;;;5040899;28;20061;-54
2023/01/08 12:20:19;;;;;;;6.85;4.22;;;6.60;99.90;;;;;;5025134;28;20950;-54
2023/01/08 12:22:59;;;;;;;8.73;4.80;;;6.60;99.90;;;;;;5024923;28;20087;-54
2023/01/08 12:25:30;;;;;;;11.40;6.45;;;6.60;99.90;;;;;;5025372;28;20411;-53
2023/01/08 12:28:21;;;;;;;13.82;7.25;;;6.70;99.90;;;;;;5024625;28;20047;-55
2023/01/08 12:30:53;;;;;;;14.63;7.70;;;6.70;99.90;;;;;;5024629;28;20045;-55
2023/01/08 12:33:36;;;;;;;12.60;5.78;;;6.80;99.90;;;;;;5040527;28;20055;-53
2023/01/08 12:36:09;;;;;;;8.15;5.38;;;6.80;99.90;;;;;;5024121;28;20068;-53
2023/01/08 12:38:43;;;;;;;7.97;5.53;;;6.90;99.90;;;;;;5016288;28;20045;-55
2023/01/08 12:41:12;;;;;;;8.65;5.00;;;7.00;99.90;;;;;;5025795;28;20063;-55
2023/01/08 12:43:58;;;;;;;6.15;4.57;;;7.10;99.90;;;;;;5023394;28;20130;-55
2023/01/08 12:46:28;;;;;;;9.93;6.05;;;7.20;99.90;;;;;;5025167;28;20076;-55
2023/01/08 12:48:56;;;;;;;7.45;4.18;;;7.30;99.90;;;;;;5021328;28;20045;-54
2023/01/08 12:51:37;;;;;;;5.18;3.95;;;7.30;99.90;;;;;;5025476;28;20055;-56
2023/01/08 12:54:10;;;;;;;11.93;5.18;;;7.40;99.90;;;;;;5023127;28;20736;-53
2023/01/08 12:56:58;;;;;;;6.75;4.00;;;7.40;99.90;;;;;;5039944;28;20577;-54
2023/01/08 12:59:46;;;;;;;7.25;4.47;;;7.40;99.90;;;;;;5024579;28;20107;-56
2023/01/08 13:02:16;;;;;;;6.25;4.28;;;7.40;99.90;;;;;;5024076;28;20205;-56
2023/01/08 13:04:45;;;;;;;7.95;4.43;;;7.40;99.90;;;;;;5023918;28;20126;-55
2023/01/08 13:07:24;;;;;;;5.40;3.85;;;7.40;99.90;;;;;;5023990;28;20636;-55
2023/01/08 13:09:55;;;;;;;7.05;4.28;;;7.40;99.90;;;;;;5024655;28;20375;-55
2023/01/08 13:12:33;;;;;;;7.65;4.55;;;7.30;99.90;;;;;;5022397;28;20056;-55
2023/01/08 13:15:00;;;;;;;5.32;4.45;;;7.30;99.90;;;;;;5023757;28;20560;-56
2023/01/08 13:17:27;;;;;;;5.85;3.58;;;7.30;99.90;;;;;;5024842;28;20045;-54
2023/01/08 13:19:59;;;;;;;7.57;4.88;;;7.20;99.90;;;;;;5022743;28;21045;-55
2023/01/08 13:22:29;;;;;;;7.05;4.85;;;7.20;99.90;;;;;;5025110;28;20423;-54
2023/01/08 13:25:15;;;;;;;5.35;4.55;;;7.20;99.90;;;;;;5023677;28;20428;-53